4XLOK LLER-LLBG
Flight info
| Callsign | 4XLOK |
|---|---|
| Flight time | 1h 10m |
| Altitude | 14000 |
| Route | NURIT J10 AMMIT |
| Aircraft | C208/L-SDFGR/C |
Departure
| Time | 2026-05-08 16:11 |
|---|---|
| Airport | Ramon International Airport (LLER) |
Arrival
| Time | 2026-05-08 17:22 |
|---|---|
| Airport | Ben Gurion International Airport (LLBG) |
| Time | Latitude | Longitude | Altitude | Speed | Heading |
|---|---|---|---|---|---|
| 2026-05-08 15:56 | 29.72357 | 35.00922 | 296 ft | 0 kts | 103° |
| 2026-05-08 16:06 | 29.72358 | 35.00922 | 296 ft | 0 kts | 103° |
| 2026-05-08 16:07 | 29.72361 | 35.00904 | 296 ft | 2 kts | 103° |
| 2026-05-08 16:07 | 29.72365 | 35.00886 | 296 ft | 2 kts | 103° |
| 2026-05-08 16:07 | 29.72370 | 35.00868 | 298 ft | 2 kts | 144° |
| 2026-05-08 16:07 | 29.72378 | 35.00865 | 296 ft | 0 kts | 192° |
| 2026-05-08 16:08 | 29.72345 | 35.00855 | 296 ft | 17 kts | 194° |
| 2026-05-08 16:09 | 29.72243 | 35.00892 | 298 ft | 20 kts | 109° |
| 2026-05-08 16:09 | 29.72223 | 35.01058 | 296 ft | 21 kts | 82° |
| 2026-05-08 16:09 | 29.72214 | 35.01243 | 298 ft | 20 kts | 51° |
| 2026-05-08 16:09 | 29.72296 | 35.01293 | 296 ft | 14 kts | 15° |
| 2026-05-08 16:10 | 29.72542 | 35.01363 | 296 ft | 61 kts | 13° |
| 2026-05-08 16:10 | 29.73059 | 35.01506 | 390 ft | 85 kts | 13° |
| 2026-05-08 16:10 | 29.73619 | 35.01641 | 670 ft | 90 kts | 9° |
| 2026-05-08 16:10 | 29.74340 | 35.01775 | 702 ft | 118 kts | 6° |
| 2026-05-08 16:11 | 29.75224 | 35.01850 | 812 ft | 134 kts | 5° |
| 2026-05-08 16:11 | 29.76175 | 35.01934 | 974 ft | 140 kts | 5° |
| 2026-05-08 16:11 | 29.77161 | 35.02033 | 1128 ft | 144 kts | 4° |
| 2026-05-08 16:11 | 29.78177 | 35.02151 | 1292 ft | 149 kts | 8° |
| 2026-05-08 16:12 | 29.78882 | 35.02484 | 1400 ft | 146 kts | 27° |
| 2026-05-08 16:12 | 29.79774 | 35.02965 | 1548 ft | 137 kts | 12° |
| 2026-05-08 16:12 | 29.80218 | 35.03058 | 1629 ft | 132 kts | 8° |
| 2026-05-08 16:13 | 29.80613 | 35.03123 | 1684 ft | 129 kts | 8° |
| 2026-05-08 16:13 | 29.81493 | 35.03265 | 1832 ft | 127 kts | 6° |
| 2026-05-08 16:13 | 29.82372 | 35.03400 | 1985 ft | 129 kts | 6° |
| 2026-05-08 16:13 | 29.83268 | 35.03531 | 2138 ft | 131 kts | 7° |
| 2026-05-08 16:14 | 29.84183 | 35.03661 | 2291 ft | 132 kts | 9° |
| 2026-05-08 16:14 | 29.85090 | 35.03790 | 2459 ft | 129 kts | 7° |
| 2026-05-08 16:14 | 29.85963 | 35.03912 | 2690 ft | 124 kts | 7° |
| 2026-05-08 16:14 | 29.86800 | 35.04031 | 2915 ft | 119 kts | 8° |
| 2026-05-08 16:15 | 29.87612 | 35.04145 | 3140 ft | 117 kts | 7° |
| 2026-05-08 16:15 | 29.88409 | 35.04257 | 3376 ft | 115 kts | 5° |
| 2026-05-08 16:15 | 29.89193 | 35.04373 | 3606 ft | 112 kts | 6° |
| 2026-05-08 16:15 | 29.89963 | 35.04468 | 3843 ft | 108 kts | 5° |
| 2026-05-08 16:16 | 29.90704 | 35.04559 | 4077 ft | 105 kts | 6° |
| 2026-05-08 16:16 | 29.91421 | 35.04647 | 4317 ft | 102 kts | 7° |
| 2026-05-08 16:16 | 29.92118 | 35.04733 | 4562 ft | 100 kts | 7° |
| 2026-05-08 16:16 | 29.92818 | 35.04823 | 4798 ft | 102 kts | 6° |
| 2026-05-08 16:17 | 29.93528 | 35.04911 | 5033 ft | 103 kts | 7° |
| 2026-05-08 16:17 | 29.94241 | 35.04997 | 5268 ft | 104 kts | 7° |
| 2026-05-08 16:17 | 29.94966 | 35.05088 | 5509 ft | 106 kts | 8° |
| 2026-05-08 16:17 | 29.95708 | 35.05181 | 5754 ft | 108 kts | 8° |
| 2026-05-08 16:18 | 29.96455 | 35.05273 | 5989 ft | 109 kts | 8° |
| 2026-05-08 16:18 | 29.97205 | 35.05366 | 6232 ft | 108 kts | 8° |
| 2026-05-08 16:18 | 29.97952 | 35.05459 | 6453 ft | 109 kts | 9° |
| 2026-05-08 16:18 | 29.98719 | 35.05556 | 6641 ft | 113 kts | 8° |
| 2026-05-08 16:19 | 29.99509 | 35.05656 | 6834 ft | 115 kts | 8° |
| 2026-05-08 16:19 | 30.00316 | 35.05755 | 7032 ft | 119 kts | 8° |
| 2026-05-08 16:19 | 30.01146 | 35.05860 | 7227 ft | 121 kts | 7° |
| 2026-05-08 16:19 | 30.01995 | 35.05966 | 7426 ft | 124 kts | 7° |
| 2026-05-08 16:20 | 30.02855 | 35.06072 | 7625 ft | 125 kts | 7° |
| 2026-05-08 16:20 | 30.03724 | 35.06182 | 7821 ft | 126 kts | 7° |
| 2026-05-08 16:20 | 30.04600 | 35.06291 | 8019 ft | 128 kts | 7° |
| 2026-05-08 16:20 | 30.05493 | 35.06403 | 8226 ft | 131 kts | 7° |
| 2026-05-08 16:21 | 30.06403 | 35.06517 | 8425 ft | 132 kts | 7° |
| 2026-05-08 16:21 | 30.07317 | 35.06663 | 8625 ft | 133 kts | 12° |
| 2026-05-08 16:21 | 30.08229 | 35.06860 | 8826 ft | 134 kts | 11° |
| 2026-05-08 16:21 | 30.09145 | 35.07043 | 9022 ft | 134 kts | 11° |
| 2026-05-08 16:22 | 30.10060 | 35.07231 | 9226 ft | 135 kts | 10° |
| 2026-05-08 16:22 | 30.10992 | 35.07418 | 9431 ft | 136 kts | 10° |
| 2026-05-08 16:22 | 30.11925 | 35.07614 | 9632 ft | 136 kts | 11° |
| 2026-05-08 16:22 | 30.12858 | 35.07809 | 9845 ft | 137 kts | 11° |
| 2026-05-08 16:23 | 30.13796 | 35.08002 | 10023 ft | 138 kts | 9° |
| 2026-05-08 16:23 | 30.14787 | 35.08202 | 10041 ft | 150 kts | 10° |
| 2026-05-08 16:23 | 30.15832 | 35.08422 | 10051 ft | 158 kts | 10° |
| 2026-05-08 16:23 | 30.16955 | 35.08658 | 10047 ft | 170 kts | 10° |
| 2026-05-08 16:24 | 30.18148 | 35.08906 | 10053 ft | 178 kts | 9° |
| 2026-05-08 16:24 | 30.19389 | 35.09161 | 10054 ft | 184 kts | 10° |
| 2026-05-08 16:24 | 30.20648 | 35.09421 | 10055 ft | 188 kts | 10° |
| 2026-05-08 16:24 | 30.21942 | 35.09689 | 10053 ft | 190 kts | 10° |
| 2026-05-08 16:25 | 30.23247 | 35.09957 | 10053 ft | 191 kts | 9° |
| 2026-05-08 16:25 | 30.24564 | 35.10200 | 10052 ft | 192 kts | 8° |
| 2026-05-08 16:25 | 30.25883 | 35.10441 | 10051 ft | 192 kts | 9° |
| 2026-05-08 16:25 | 30.27205 | 35.10689 | 10056 ft | 193 kts | 9° |
| 2026-05-08 16:26 | 30.28548 | 35.10940 | 10053 ft | 193 kts | 8° |
| 2026-05-08 16:26 | 30.29874 | 35.11190 | 10053 ft | 193 kts | 8° |
| 2026-05-08 16:26 | 30.31202 | 35.11438 | 10053 ft | 193 kts | 9° |
| 2026-05-08 16:26 | 30.32507 | 35.11685 | 10052 ft | 193 kts | 9° |
| 2026-05-08 16:27 | 30.33849 | 35.11938 | 10054 ft | 193 kts | 8° |
| 2026-05-08 16:27 | 30.35170 | 35.12193 | 10052 ft | 192 kts | 9° |
| 2026-05-08 16:27 | 30.36489 | 35.12449 | 10056 ft | 192 kts | 9° |
| 2026-05-08 16:27 | 30.37807 | 35.12702 | 10057 ft | 192 kts | 8° |
| 2026-05-08 16:28 | 30.39105 | 35.12953 | 10057 ft | 192 kts | 9° |
| 2026-05-08 16:28 | 30.40423 | 35.13208 | 10058 ft | 192 kts | 8° |
| 2026-05-08 16:28 | 30.41742 | 35.13460 | 10057 ft | 192 kts | 8° |
| 2026-05-08 16:28 | 30.43062 | 35.13716 | 10058 ft | 192 kts | 8° |
| 2026-05-08 16:29 | 30.44383 | 35.13972 | 10066 ft | 193 kts | 8° |
| 2026-05-08 16:29 | 30.45706 | 35.14226 | 10061 ft | 193 kts | 8° |
| 2026-05-08 16:29 | 30.47035 | 35.14483 | 10060 ft | 193 kts | 9° |
| 2026-05-08 16:29 | 30.48361 | 35.14739 | 10062 ft | 193 kts | 8° |
| 2026-05-08 16:30 | 30.49690 | 35.14995 | 10064 ft | 194 kts | 9° |
| 2026-05-08 16:30 | 30.51025 | 35.15254 | 10066 ft | 194 kts | 9° |
| 2026-05-08 16:30 | 30.52360 | 35.15511 | 10063 ft | 194 kts | 9° |
| 2026-05-08 16:30 | 30.53693 | 35.15769 | 10069 ft | 194 kts | 8° |
| 2026-05-08 16:31 | 30.55024 | 35.16027 | 10071 ft | 194 kts | 9° |
| 2026-05-08 16:31 | 30.56330 | 35.16389 | 10066 ft | 194 kts | 22° |
| 2026-05-08 16:31 | 30.57562 | 35.17024 | 10064 ft | 193 kts | 24° |
| 2026-05-08 16:31 | 30.58801 | 35.17627 | 10068 ft | 193 kts | 22° |
| 2026-05-08 16:32 | 30.60040 | 35.18228 | 10066 ft | 193 kts | 23° |
| 2026-05-08 16:32 | 30.61281 | 35.18838 | 10067 ft | 193 kts | 23° |
| 2026-05-08 16:32 | 30.62520 | 35.19445 | 10071 ft | 193 kts | 23° |
| 2026-05-08 16:32 | 30.63760 | 35.20053 | 10073 ft | 193 kts | 23° |
| 2026-05-08 16:33 | 30.64997 | 35.20661 | 10073 ft | 193 kts | 23° |
| 2026-05-08 16:33 | 30.66236 | 35.21269 | 10073 ft | 193 kts | 23° |
| 2026-05-08 16:33 | 30.67480 | 35.21880 | 10073 ft | 194 kts | 23° |
| 2026-05-08 16:33 | 30.68721 | 35.22489 | 10074 ft | 194 kts | 22° |
| 2026-05-08 16:34 | 30.69960 | 35.23100 | 10075 ft | 194 kts | 23° |
| 2026-05-08 16:34 | 30.71203 | 35.23710 | 10078 ft | 194 kts | 22° |
| 2026-05-08 16:34 | 30.72445 | 35.24320 | 10077 ft | 194 kts | 23° |
| 2026-05-08 16:34 | 30.73687 | 35.24932 | 10080 ft | 194 kts | 23° |
| 2026-05-08 16:35 | 30.74934 | 35.25544 | 10079 ft | 194 kts | 22° |
| 2026-05-08 16:35 | 30.76175 | 35.26155 | 10079 ft | 192 kts | 23° |
| 2026-05-08 16:35 | 30.77404 | 35.26760 | 10077 ft | 191 kts | 22° |
| 2026-05-08 16:35 | 30.78621 | 35.27359 | 10075 ft | 190 kts | 22° |
| 2026-05-08 16:36 | 30.79836 | 35.27957 | 10077 ft | 189 kts | 23° |
| 2026-05-08 16:36 | 30.81046 | 35.28554 | 10073 ft | 189 kts | 22° |
| 2026-05-08 16:36 | 30.82251 | 35.29147 | 10075 ft | 188 kts | 22° |
| 2026-05-08 16:36 | 30.83455 | 35.29740 | 10074 ft | 188 kts | 22° |
| 2026-05-08 16:37 | 30.84656 | 35.30334 | 10074 ft | 187 kts | 22° |
| 2026-05-08 16:37 | 30.85855 | 35.30926 | 10072 ft | 187 kts | 22° |
| 2026-05-08 16:37 | 30.87052 | 35.31515 | 10074 ft | 187 kts | 22° |
| 2026-05-08 16:37 | 30.88249 | 35.32105 | 10078 ft | 187 kts | 22° |
| 2026-05-08 16:38 | 30.89441 | 35.32694 | 10080 ft | 186 kts | 22° |
| 2026-05-08 16:38 | 30.90630 | 35.33282 | 10079 ft | 185 kts | 22° |
| 2026-05-08 16:38 | 30.91817 | 35.33868 | 10076 ft | 185 kts | 22° |
| 2026-05-08 16:38 | 30.92998 | 35.34450 | 10078 ft | 184 kts | 22° |
| 2026-05-08 16:39 | 30.94182 | 35.35025 | 10079 ft | 184 kts | 19° |
| 2026-05-08 16:39 | 30.95436 | 35.35248 | 10079 ft | 182 kts | 1° |
| 2026-05-08 16:39 | 30.96701 | 35.35363 | 10081 ft | 182 kts | 4° |
| 2026-05-08 16:39 | 30.97961 | 35.35504 | 10084 ft | 182 kts | 3° |
| 2026-05-08 16:40 | 30.99225 | 35.35636 | 10081 ft | 182 kts | 3° |
| 2026-05-08 16:40 | 31.00490 | 35.35765 | 10085 ft | 182 kts | 3° |
| 2026-05-08 16:40 | 31.01754 | 35.35895 | 10081 ft | 182 kts | 3° |
| 2026-05-08 16:40 | 31.03019 | 35.36026 | 10083 ft | 182 kts | 3° |
| 2026-05-08 16:41 | 31.04281 | 35.36155 | 10087 ft | 182 kts | 3° |
| 2026-05-08 16:41 | 31.05529 | 35.36283 | 10087 ft | 183 kts | 3° |
| 2026-05-08 16:41 | 31.06814 | 35.36416 | 10083 ft | 183 kts | 3° |
| 2026-05-08 16:42 | 31.09329 | 35.36674 | 10084 ft | 183 kts | 3° |
| 2026-05-08 16:42 | 31.10597 | 35.36805 | 10085 ft | 183 kts | 3° |
| 2026-05-08 16:42 | 31.11864 | 35.36936 | 10084 ft | 183 kts | 3° |
| 2026-05-08 16:42 | 31.13150 | 35.37069 | 10089 ft | 183 kts | 3° |
| 2026-05-08 16:43 | 31.14402 | 35.37197 | 10088 ft | 183 kts | 3° |
| 2026-05-08 16:43 | 31.15670 | 35.37328 | 10089 ft | 183 kts | 3° |
| 2026-05-08 16:43 | 31.16937 | 35.37460 | 10088 ft | 183 kts | 3° |
| 2026-05-08 16:43 | 31.18206 | 35.37593 | 10090 ft | 183 kts | 3° |
| 2026-05-08 16:44 | 31.19471 | 35.37726 | 10087 ft | 183 kts | 3° |
| 2026-05-08 16:44 | 31.20737 | 35.37859 | 10088 ft | 183 kts | 3° |
| 2026-05-08 16:44 | 31.22004 | 35.37992 | 10088 ft | 183 kts | 3° |
| 2026-05-08 16:44 | 31.23270 | 35.38125 | 10087 ft | 183 kts | 3° |
| 2026-05-08 16:45 | 31.24535 | 35.38258 | 10088 ft | 182 kts | 3° |
| 2026-05-08 16:45 | 31.25799 | 35.38391 | 10088 ft | 182 kts | 3° |
| 2026-05-08 16:45 | 31.27061 | 35.38524 | 10089 ft | 182 kts | 3° |
| 2026-05-08 16:45 | 31.28325 | 35.38657 | 10088 ft | 182 kts | 3° |
| 2026-05-08 16:46 | 31.29589 | 35.38790 | 10086 ft | 182 kts | 3° |
| 2026-05-08 16:46 | 31.30849 | 35.38923 | 10089 ft | 182 kts | 3° |
| 2026-05-08 16:46 | 31.32109 | 35.39056 | 10092 ft | 182 kts | 3° |
| 2026-05-08 16:46 | 31.33368 | 35.39205 | 10090 ft | 182 kts | 7° |
| 2026-05-08 16:47 | 31.34609 | 35.39492 | 10088 ft | 182 kts | 9° |
| 2026-05-08 16:47 | 31.35853 | 35.39768 | 10088 ft | 182 kts | 8° |
| 2026-05-08 16:47 | 31.37097 | 35.40041 | 10093 ft | 182 kts | 9° |
| 2026-05-08 16:47 | 31.38341 | 35.40316 | 10097 ft | 182 kts | 8° |
| 2026-05-08 16:48 | 31.39583 | 35.40592 | 10097 ft | 182 kts | 8° |
| 2026-05-08 16:48 | 31.40407 | 35.40775 | 10096 ft | 182 kts | 9° |
| 2026-05-08 16:48 | 31.42072 | 35.41146 | 10096 ft | 182 kts | 9° |
| 2026-05-08 16:48 | 31.43319 | 35.41423 | 10094 ft | 183 kts | 8° |
| 2026-05-08 16:49 | 31.44144 | 35.41607 | 10097 ft | 183 kts | 8° |
| 2026-05-08 16:49 | 31.45392 | 35.41885 | 10098 ft | 183 kts | 8° |
| 2026-05-08 16:49 | 31.46642 | 35.42163 | 10100 ft | 183 kts | 8° |
| 2026-05-08 16:49 | 31.47889 | 35.42441 | 10099 ft | 183 kts | 8° |
| 2026-05-08 16:50 | 31.49138 | 35.42719 | 10101 ft | 183 kts | 8° |
| 2026-05-08 16:50 | 31.50384 | 35.42997 | 10102 ft | 183 kts | 8° |
| 2026-05-08 16:50 | 31.51633 | 35.43275 | 10104 ft | 183 kts | 8° |
| 2026-05-08 16:50 | 31.52882 | 35.43554 | 10104 ft | 183 kts | 8° |
| 2026-05-08 16:51 | 31.54131 | 35.43833 | 10102 ft | 183 kts | 8° |
| 2026-05-08 16:51 | 31.55382 | 35.44111 | 10102 ft | 183 kts | 8° |
| 2026-05-08 16:51 | 31.56636 | 35.44392 | 10101 ft | 183 kts | 7° |
| 2026-05-08 16:51 | 31.58294 | 35.44761 | 10104 ft | 183 kts | 8° |
| 2026-05-08 16:52 | 31.59137 | 35.44950 | 10102 ft | 183 kts | 8° |
| 2026-05-08 16:52 | 31.60386 | 35.45228 | 10105 ft | 182 kts | 8° |
| 2026-05-08 16:52 | 31.61635 | 35.45508 | 10106 ft | 183 kts | 7° |
| 2026-05-08 16:52 | 31.62883 | 35.45790 | 10107 ft | 183 kts | 8° |
| 2026-05-08 16:53 | 31.65372 | 35.46387 | 10108 ft | 183 kts | 8° |
| 2026-05-08 16:53 | 31.66618 | 35.46680 | 10105 ft | 182 kts | 8° |
| 2026-05-08 16:53 | 31.67860 | 35.46977 | 10112 ft | 183 kts | 8° |
| 2026-05-08 16:54 | 31.69106 | 35.47271 | 10110 ft | 182 kts | 8° |
| 2026-05-08 16:54 | 31.70350 | 35.47566 | 10112 ft | 182 kts | 8° |
| 2026-05-08 16:54 | 31.71594 | 35.47863 | 10113 ft | 183 kts | 9° |
| 2026-05-08 16:54 | 31.72839 | 35.48161 | 10115 ft | 182 kts | 5° |
| 2026-05-08 16:55 | 31.74067 | 35.48023 | 10115 ft | 176 kts | 337° |
| 2026-05-08 16:55 | 31.75119 | 35.47342 | 10114 ft | 171 kts | 315° |
| 2026-05-08 16:55 | 31.75950 | 35.46359 | 10118 ft | 169 kts | 310° |
| 2026-05-08 16:55 | 31.76788 | 35.45390 | 10112 ft | 168 kts | 312° |
| 2026-05-08 16:56 | 31.77620 | 35.44430 | 10117 ft | 168 kts | 310° |
| 2026-05-08 16:56 | 31.78443 | 35.43461 | 10115 ft | 168 kts | 311° |
| 2026-05-08 16:56 | 31.79270 | 35.42488 | 10112 ft | 168 kts | 311° |
| 2026-05-08 16:56 | 31.80099 | 35.41515 | 10119 ft | 169 kts | 311° |
| 2026-05-08 16:57 | 31.80933 | 35.40542 | 10115 ft | 169 kts | 311° |
| 2026-05-08 16:57 | 31.81753 | 35.39575 | 10117 ft | 169 kts | 310° |
| 2026-05-08 16:57 | 31.82598 | 35.38586 | 10117 ft | 169 kts | 310° |
| 2026-05-08 16:57 | 31.83418 | 35.37622 | 10119 ft | 169 kts | 311° |
| 2026-05-08 16:58 | 31.84248 | 35.36645 | 10119 ft | 169 kts | 311° |
| 2026-05-08 16:58 | 31.85078 | 35.35671 | 10123 ft | 169 kts | 311° |
| 2026-05-08 16:58 | 31.85908 | 35.34700 | 10120 ft | 168 kts | 311° |
| 2026-05-08 16:58 | 31.86732 | 35.33730 | 10119 ft | 168 kts | 311° |
| 2026-05-08 16:59 | 31.87550 | 35.32766 | 10119 ft | 166 kts | 311° |
| 2026-05-08 16:59 | 31.88370 | 35.31803 | 10118 ft | 166 kts | 311° |
| 2026-05-08 16:59 | 31.89185 | 35.30845 | 10122 ft | 166 kts | 310° |
| 2026-05-08 16:59 | 31.90001 | 35.29886 | 10124 ft | 166 kts | 310° |
| 2026-05-08 17:00 | 31.90819 | 35.28921 | 10126 ft | 167 kts | 310° |
| 2026-05-08 17:00 | 31.91640 | 35.27955 | 10123 ft | 167 kts | 310° |
| 2026-05-08 17:00 | 31.92461 | 35.26989 | 10120 ft | 167 kts | 310° |
| 2026-05-08 17:00 | 31.93282 | 35.26021 | 10126 ft | 167 kts | 310° |
| 2026-05-08 17:01 | 31.94101 | 35.25055 | 10124 ft | 166 kts | 311° |
| 2026-05-08 17:01 | 31.94783 | 35.23999 | 10123 ft | 161 kts | 293° |
| 2026-05-08 17:01 | 31.95283 | 35.22832 | 10124 ft | 159 kts | 295° |
| 2026-05-08 17:01 | 31.95812 | 35.21676 | 10125 ft | 161 kts | 295° |
| 2026-05-08 17:02 | 31.96339 | 35.20514 | 10125 ft | 161 kts | 294° |
| 2026-05-08 17:02 | 31.96867 | 35.19344 | 10115 ft | 162 kts | 295° |
| 2026-05-08 17:02 | 31.97396 | 35.18173 | 10123 ft | 163 kts | 294° |
| 2026-05-08 17:02 | 31.97928 | 35.16993 | 10118 ft | 163 kts | 295° |
| 2026-05-08 17:03 | 31.98459 | 35.15816 | 10120 ft | 163 kts | 294° |
| 2026-05-08 17:03 | 31.98990 | 35.14636 | 10121 ft | 163 kts | 294° |
| 2026-05-08 17:03 | 31.99522 | 35.13457 | 10117 ft | 163 kts | 295° |
| 2026-05-08 17:03 | 32.00055 | 35.12277 | 10119 ft | 163 kts | 294° |
| 2026-05-08 17:04 | 32.00586 | 35.11092 | 10121 ft | 163 kts | 295° |
| 2026-05-08 17:04 | 32.01118 | 35.09911 | 10046 ft | 162 kts | 294° |
| 2026-05-08 17:04 | 32.01628 | 35.08773 | 9785 ft | 153 kts | 293° |
| 2026-05-08 17:04 | 32.02120 | 35.07683 | 9517 ft | 149 kts | 294° |
| 2026-05-08 17:05 | 32.02598 | 35.06614 | 9245 ft | 146 kts | 294° |
| 2026-05-08 17:05 | 32.03057 | 35.05558 | 8987 ft | 143 kts | 287° |
| 2026-05-08 17:05 | 32.03052 | 35.04428 | 8728 ft | 139 kts | 256° |
| 2026-05-08 17:05 | 32.02855 | 35.03317 | 8480 ft | 138 kts | 258° |
| 2026-05-08 17:06 | 32.02713 | 35.02196 | 8232 ft | 138 kts | 261° |
| 2026-05-08 17:06 | 32.02596 | 35.01070 | 7983 ft | 139 kts | 262° |
| 2026-05-08 17:06 | 32.02485 | 34.99945 | 7742 ft | 138 kts | 262° |
| 2026-05-08 17:06 | 32.02379 | 34.98818 | 7499 ft | 138 kts | 262° |
| 2026-05-08 17:07 | 32.02272 | 34.97681 | 7266 ft | 141 kts | 262° |
| 2026-05-08 17:07 | 32.02163 | 34.96525 | 7032 ft | 143 kts | 262° |
| 2026-05-08 17:07 | 32.02053 | 34.95356 | 6798 ft | 144 kts | 262° |
| 2026-05-08 17:07 | 32.01942 | 34.94183 | 6561 ft | 145 kts | 263° |
| 2026-05-08 17:08 | 32.01829 | 34.93002 | 6324 ft | 145 kts | 263° |
| 2026-05-08 17:08 | 32.01718 | 34.91824 | 6066 ft | 145 kts | 263° |
| 2026-05-08 17:08 | 32.01606 | 34.90647 | 5821 ft | 145 kts | 264° |
| 2026-05-08 17:08 | 32.01495 | 34.89467 | 5576 ft | 145 kts | 264° |
| 2026-05-08 17:09 | 32.01383 | 34.88289 | 5331 ft | 145 kts | 265° |
| 2026-05-08 17:09 | 32.01386 | 34.87117 | 5083 ft | 144 kts | 285° |
| 2026-05-08 17:09 | 32.01671 | 34.85987 | 4843 ft | 144 kts | 287° |
| 2026-05-08 17:09 | 32.01926 | 34.84842 | 4591 ft | 145 kts | 287° |
| 2026-05-08 17:10 | 32.02183 | 34.83696 | 4332 ft | 144 kts | 288° |
| 2026-05-08 17:10 | 32.02436 | 34.82574 | 4121 ft | 141 kts | 288° |
| 2026-05-08 17:10 | 32.02679 | 34.81510 | 4105 ft | 129 kts | 290° |
| 2026-05-08 17:10 | 32.02903 | 34.80516 | 4097 ft | 123 kts | 289° |
| 2026-05-08 17:11 | 32.03118 | 34.79562 | 4097 ft | 119 kts | 289° |
| 2026-05-08 17:11 | 32.03331 | 34.78627 | 4050 ft | 121 kts | 290° |
| 2026-05-08 17:11 | 32.03553 | 34.77660 | 4006 ft | 121 kts | 290° |
| 2026-05-08 17:11 | 32.03762 | 34.76720 | 3997 ft | 117 kts | 291° |
| 2026-05-08 17:12 | 32.03974 | 34.75805 | 3997 ft | 115 kts | 291° |
| 2026-05-08 17:12 | 32.04182 | 34.74893 | 3995 ft | 115 kts | 290° |
| 2026-05-08 17:12 | 32.04390 | 34.73980 | 3995 ft | 115 kts | 290° |
| 2026-05-08 17:12 | 32.04601 | 34.73072 | 3994 ft | 114 kts | 290° |
| 2026-05-08 17:13 | 32.04805 | 34.72167 | 3992 ft | 115 kts | 289° |
| 2026-05-08 17:13 | 32.05014 | 34.71246 | 3998 ft | 115 kts | 291° |
| 2026-05-08 17:13 | 32.05221 | 34.70341 | 3996 ft | 114 kts | 291° |
| 2026-05-08 17:13 | 32.05429 | 34.69431 | 3999 ft | 115 kts | 291° |
| 2026-05-08 17:14 | 32.05650 | 34.68528 | 4000 ft | 113 kts | 297° |
| 2026-05-08 17:14 | 32.06093 | 34.67792 | 3998 ft | 109 kts | 320° |
| 2026-05-08 17:14 | 32.06704 | 34.67275 | 3964 ft | 110 kts | 336° |
| 2026-05-08 17:14 | 32.07482 | 34.67018 | 3730 ft | 122 kts | 356° |
| 2026-05-08 17:15 | 32.08196 | 34.67082 | 3547 ft | 128 kts | 13° |
| 2026-05-08 17:15 | 32.09004 | 34.67534 | 3334 ft | 132 kts | 33° |
| 2026-05-08 17:15 | 32.09617 | 34.68357 | 3087 ft | 137 kts | 54° |
| 2026-05-08 17:15 | 32.09914 | 34.69442 | 2843 ft | 144 kts | 82° |
| 2026-05-08 17:16 | 32.09637 | 34.70604 | 2605 ft | 152 kts | 112° |
| 2026-05-08 17:16 | 32.09144 | 34.71678 | 2501 ft | 144 kts | 111° |
| 2026-05-08 17:16 | 32.08658 | 34.72672 | 2503 ft | 137 kts | 112° |
| 2026-05-08 17:16 | 32.08182 | 34.73624 | 2496 ft | 133 kts | 113° |
| 2026-05-08 17:17 | 32.07705 | 34.74556 | 2446 ft | 133 kts | 114° |
| 2026-05-08 17:17 | 32.07234 | 34.75460 | 2293 ft | 125 kts | 114° |
| 2026-05-08 17:17 | 32.06786 | 34.76322 | 2125 ft | 122 kts | 113° |
| 2026-05-08 17:17 | 32.06346 | 34.77169 | 1960 ft | 120 kts | 113° |
| 2026-05-08 17:18 | 32.05914 | 34.78005 | 1804 ft | 119 kts | 112° |
| 2026-05-08 17:18 | 32.05485 | 34.78842 | 1656 ft | 118 kts | 114° |
| 2026-05-08 17:18 | 32.05068 | 34.79639 | 1489 ft | 112 kts | 112° |
| 2026-05-08 17:18 | 32.04666 | 34.80417 | 1337 ft | 110 kts | 112° |
| 2026-05-08 17:19 | 32.04271 | 34.81184 | 1190 ft | 107 kts | 115° |
| 2026-05-08 17:19 | 32.03891 | 34.81913 | 1055 ft | 103 kts | 117° |
| 2026-05-08 17:19 | 32.03519 | 34.82629 | 923 ft | 100 kts | 113° |
| 2026-05-08 17:19 | 32.03165 | 34.83333 | 785 ft | 99 kts | 115° |
| 2026-05-08 17:20 | 32.02779 | 34.84070 | 713 ft | 108 kts | 119° |
| 2026-05-08 17:20 | 32.02415 | 34.84761 | 619 ft | 95 kts | 116° |
| 2026-05-08 17:20 | 32.02066 | 34.85426 | 418 ft | 96 kts | 121° |
| 2026-05-08 17:20 | 32.01748 | 34.86064 | 281 ft | 85 kts | 120° |
| 2026-05-08 17:21 | 32.01421 | 34.86672 | 174 ft | 87 kts | 121° |
| 2026-05-08 17:21 | 32.01129 | 34.87234 | 120 ft | 72 kts | 120° |
| 2026-05-08 17:21 | 32.00893 | 34.87701 | 117 ft | 64 kts | 121° |
| 2026-05-08 17:21 | 32.00663 | 34.88144 | 118 ft | 55 kts | 121° |
| 2026-05-08 17:22 | 32.00492 | 34.88466 | 121 ft | 38 kts | 129° |
| 2026-05-08 17:22 | 32.00323 | 34.88637 | 118 ft | 27 kts | 150° |
| 2026-05-08 17:22 | 32.00175 | 34.88703 | 117 ft | 19 kts | 172° |
| 2026-05-08 17:22 | 32.00070 | 34.88666 | 119 ft | 13 kts | 207° |
| 2026-05-08 17:23 | 32.00009 | 34.88629 | 117 ft | 8 kts | 207° |
| 2026-05-08 17:23 | 31.99972 | 34.88606 | 118 ft | 4 kts | 207° |
| 2026-05-08 17:23 | 31.99937 | 34.88584 | 117 ft | 11 kts | 213° |
| 2026-05-08 17:23 | 31.99921 | 34.88571 | 118 ft | 13 kts | 213° |